createdAt,value
2024-02-10T00:01:52.607Z,14.19
2024-02-10T00:06:58.823Z,14.16
2024-02-10T00:12:11.089Z,14.16
2024-02-10T00:17:15.486Z,14.15
2024-02-10T00:22:18.998Z,14.15
2024-02-10T00:27:21.279Z,14.13
2024-02-10T00:32:27.470Z,14.08
2024-02-10T00:37:49.937Z,14.05
2024-02-10T00:42:58.952Z,14.06
2024-02-10T00:48:04.108Z,14.02
2024-02-10T00:53:07.732Z,14.03
2024-02-10T00:58:16.172Z,14.02
2024-02-10T01:03:27.594Z,14.03
2024-02-10T01:08:39.641Z,14.02
2024-02-10T01:14:11.228Z,13.96
2024-02-10T01:19:22.641Z,13.91
2024-02-10T01:25:01.746Z,13.84
2024-02-10T01:30:11.851Z,13.81
2024-02-10T01:35:14.254Z,13.82
2024-02-10T01:40:30.843Z,13.84
2024-02-10T01:45:38.727Z,13.86
2024-02-10T01:50:45.606Z,13.89
2024-02-10T01:55:52.240Z,13.94
2024-02-10T02:05:40.810Z,13.94
2024-02-10T02:10:50.714Z,13.95
2024-02-10T02:16:00.214Z,13.96
2024-02-10T02:21:12.365Z,13.96
2024-02-10T02:26:29.335Z,13.98
2024-02-10T02:31:36.770Z,13.98
2024-02-10T02:36:45.526Z,13.96
2024-02-10T02:41:56.367Z,13.95
2024-02-10T02:52:31.727Z,13.93
2024-02-10T02:57:52.697Z,13.89
2024-02-10T03:08:24.513Z,13.88
2024-02-10T03:13:47.811Z,13.89
2024-02-10T03:19:12.708Z,13.89
2024-02-10T03:24:21.615Z,13.89
2024-02-10T03:29:23.886Z,13.91
2024-02-10T03:34:26.508Z,13.91
2024-02-10T03:39:36.084Z,13.90
2024-02-10T03:44:50.951Z,13.87
2024-02-10T03:50:06.864Z,13.88
2024-02-10T03:55:12.742Z,13.87
2024-02-10T04:00:25.346Z,13.87
2024-02-10T04:05:35.776Z,13.86
2024-02-10T04:10:52.326Z,13.83
2024-02-10T04:15:59.277Z,13.83
2024-02-10T04:21:11.034Z,13.82
2024-02-10T04:26:31.047Z,13.82
2024-02-10T04:31:36.465Z,13.78
2024-02-10T04:36:40.360Z,13.74
2024-02-10T04:41:46.611Z,13.72
2024-02-10T04:46:48.876Z,13.68
2024-02-10T04:57:21.038Z,13.60
2024-02-10T05:02:26.333Z,13.57
2024-02-10T05:07:28.825Z,13.53
2024-02-10T05:12:30.877Z,13.48
2024-02-10T05:17:35.331Z,13.46
2024-02-10T05:22:40.375Z,13.45
2024-02-10T05:27:46.936Z,13.46
2024-02-10T05:32:51.825Z,13.44
2024-02-10T05:37:57.738Z,13.44
2024-02-10T05:43:06.750Z,13.43
2024-02-10T05:48:09.837Z,13.39
2024-02-10T05:53:15.146Z,13.37
2024-02-10T05:58:17.459Z,13.33
2024-02-10T06:03:30.591Z,13.30
2024-02-10T06:08:33.282Z,13.30
2024-02-10T06:13:37.267Z,13.28
2024-02-10T06:18:40.833Z,13.23
2024-02-10T06:23:44.077Z,13.21
2024-02-10T06:28:52.092Z,13.17
2024-02-10T06:33:56.099Z,13.14
2024-02-10T06:39:07.015Z,13.15
2024-02-10T06:44:10.560Z,13.11
2024-02-10T06:49:12.811Z,13.14
2024-02-10T06:54:15.669Z,13.15
2024-02-10T06:59:19.168Z,13.18
2024-02-10T07:04:25.267Z,13.21
2024-02-10T07:09:27.688Z,13.22
2024-02-10T07:14:30.298Z,13.24
2024-02-10T07:19:36.769Z,13.22
2024-02-10T07:24:48.155Z,13.26
2024-02-10T07:29:51.612Z,13.31
2024-02-10T07:34:56.113Z,13.41
2024-02-10T07:39:58.491Z,13.49
2024-02-10T07:45:02.777Z,13.53
2024-02-10T07:50:09.484Z,13.60
2024-02-10T07:55:38.159Z,13.70
2024-02-10T08:00:42.328Z,13.88
2024-02-10T08:05:44.672Z,14.07
2024-02-10T08:10:48.909Z,14.37
2024-02-10T08:15:52.071Z,16.68
2024-02-10T08:20:54.663Z,17.64
2024-02-10T08:26:00.137Z,17.87
2024-02-10T08:31:05.413Z,17.92
2024-02-10T08:36:07.873Z,17.71
2024-02-10T08:41:15.595Z,17.47
2024-02-10T08:46:18.571Z,17.09
2024-02-10T08:51:22.014Z,16.80
2024-02-10T08:56:25.289Z,16.49
2024-02-10T09:01:27.510Z,16.31
2024-02-10T09:06:30.918Z,16.39
2024-02-10T09:11:44.972Z,16.48
2024-02-10T09:16:55.104Z,16.40
2024-02-10T09:21:59.769Z,16.29
2024-02-10T09:27:10.707Z,16.22
2024-02-10T09:32:13.307Z,16.11
2024-02-10T09:37:16.380Z,15.96
2024-02-10T09:42:24.639Z,15.81
2024-02-10T09:47:27.147Z,15.66
2024-02-10T09:52:30.794Z,15.60
2024-02-10T09:57:38.694Z,15.55
2024-02-10T10:02:54.452Z,15.53
2024-02-10T10:08:03.369Z,15.47
2024-02-10T10:13:11.975Z,15.44
2024-02-10T10:18:21.005Z,15.41
2024-02-10T10:23:25.488Z,15.36
2024-02-10T10:28:27.876Z,15.32
2024-02-10T10:33:31.680Z,15.30
2024-02-10T10:38:35.595Z,15.31
2024-02-10T10:43:48.035Z,15.36
2024-02-10T10:48:52.197Z,15.41
2024-02-10T10:53:58.601Z,15.37
2024-02-10T10:59:10.227Z,15.30
2024-02-10T11:04:16.135Z,15.30
2024-02-10T11:09:21.835Z,15.35
2024-02-10T11:14:24.175Z,15.35
2024-02-10T11:19:30.645Z,15.30
2024-02-10T11:24:33.303Z,15.30
2024-02-10T11:29:41.027Z,15.42
2024-02-10T11:34:47.839Z,15.68
2024-02-10T11:39:50.211Z,15.89
2024-02-10T11:44:55.229Z,15.84
2024-02-10T11:49:58.899Z,15.67
2024-02-10T11:55:04.639Z,15.52
2024-02-10T12:00:11.147Z,15.38
2024-02-10T12:05:14.860Z,15.35
2024-02-10T12:10:23.043Z,15.39
2024-02-10T12:15:25.453Z,15.38
2024-02-10T12:20:36.527Z,15.40
2024-02-10T12:25:40.125Z,15.56
2024-02-10T12:30:45.694Z,15.69
2024-02-10T12:35:55.620Z,15.83
2024-02-10T12:40:58.740Z,16.08
2024-02-10T12:46:00.963Z,16.30
2024-02-10T12:51:03.449Z,16.42
2024-02-10T12:56:06.374Z,16.46
2024-02-10T13:01:11.974Z,16.41
2024-02-10T13:06:14.380Z,16.45
2024-02-10T13:11:17.351Z,16.37
2024-02-10T13:16:20.348Z,16.34
2024-02-10T13:21:25.263Z,16.30
2024-02-10T13:26:27.475Z,16.24
2024-02-10T13:31:29.911Z,16.16
2024-02-10T13:36:37.838Z,16.16
2024-02-10T13:42:03.138Z,16.16
2024-02-10T13:47:24.517Z,16.14
2024-02-10T13:52:45.410Z,16.19
2024-02-10T13:58:09.695Z,16.24
2024-02-10T14:03:15.931Z,16.28
2024-02-10T14:08:37.162Z,16.34
2024-02-10T14:13:48.282Z,16.37
2024-02-10T14:18:51.008Z,16.36
2024-02-10T14:23:55.024Z,16.35
2024-02-10T14:28:58.971Z,16.37
2024-02-10T14:34:01.581Z,16.36
2024-02-10T14:39:15.266Z,16.30
2024-02-10T14:44:18.374Z,16.27
2024-02-10T14:49:23.284Z,16.25
2024-02-10T14:54:25.995Z,16.21
2024-02-10T14:59:30.823Z,16.23
2024-02-10T15:04:33.179Z,16.21
2024-02-10T15:09:35.472Z,16.21
2024-02-10T15:14:38.530Z,16.24
2024-02-10T15:19:41.420Z,16.43
2024-02-10T15:24:44.429Z,16.70
2024-02-10T15:29:47.753Z,16.95
2024-02-10T15:34:55.164Z,17.08
2024-02-10T15:40:26.461Z,17.20
2024-02-10T15:45:39.369Z,17.06
2024-02-10T15:50:49.511Z,16.88
2024-02-10T15:55:55.231Z,16.79
2024-02-10T16:01:01.808Z,16.81
2024-02-10T16:06:10.649Z,16.69
2024-02-10T16:11:13.260Z,16.63
2024-02-10T16:16:18.151Z,16.56
2024-02-10T16:21:31.291Z,16.58
2024-02-10T16:26:42.716Z,16.52
2024-02-10T16:31:49.125Z,16.46
2024-02-10T16:36:54.956Z,16.38
2024-02-10T16:41:58.704Z,16.29
2024-02-10T16:47:33.001Z,16.19
2024-02-10T16:52:39.808Z,16.13
2024-02-10T16:57:48.275Z,16.02
2024-02-10T17:03:00.745Z,15.92
2024-02-10T17:08:09.169Z,15.76
2024-02-10T17:13:16.131Z,15.64
2024-02-10T17:18:20.675Z,15.52
2024-02-10T17:23:25.686Z,15.43
2024-02-10T17:28:33.562Z,15.35
2024-02-10T17:33:37.297Z,15.29
2024-02-10T17:38:40.353Z,15.22
2024-02-10T17:43:54.206Z,15.17
2024-02-10T17:48:59.294Z,15.16
2024-02-10T17:54:01.871Z,15.12
2024-02-10T17:59:13.809Z,15.10
2024-02-10T18:04:19.174Z,15.04
2024-02-10T18:09:24.139Z,14.94
2024-02-10T18:14:26.225Z,14.88
2024-02-10T18:19:28.436Z,14.80
2024-02-10T18:24:33.519Z,14.74
2024-02-10T18:29:36.025Z,14.70
2024-02-10T18:34:39.410Z,14.68
2024-02-10T18:39:41.794Z,14.59
2024-02-10T18:44:47.738Z,14.53
2024-02-10T18:49:59.605Z,14.45
2024-02-10T18:55:09.456Z,14.40
2024-02-10T19:00:20.878Z,14.32
2024-02-10T19:05:23.906Z,14.27
2024-02-10T19:10:26.269Z,14.21
2024-02-10T19:15:28.374Z,14.16
2024-02-10T19:20:30.434Z,14.10
2024-02-10T19:25:35.430Z,14.05
2024-02-10T19:30:39.286Z,14.00
2024-02-10T19:35:43.260Z,13.98
2024-02-10T19:40:47.640Z,13.97
2024-02-10T19:45:49.890Z,13.95
2024-02-10T19:50:51.940Z,13.88
2024-02-10T19:55:54.188Z,13.84
2024-02-10T20:00:58.700Z,13.79
2024-02-10T20:06:01.327Z,13.75
2024-02-10T20:11:11.724Z,13.69
2024-02-10T20:16:25.619Z,13.63
2024-02-10T20:21:32.287Z,13.62
2024-02-10T20:26:34.526Z,13.61
2024-02-10T20:31:37.998Z,13.58
2024-02-10T20:36:46.356Z,13.57
2024-02-10T20:41:48.602Z,13.53
2024-02-10T20:46:50.961Z,13.54
2024-02-10T20:51:57.807Z,13.48
2024-02-10T20:57:05.600Z,13.46
2024-02-10T21:02:08.384Z,13.42
2024-02-10T21:07:14.252Z,13.37
2024-02-10T21:12:18.058Z,13.33
2024-02-10T21:17:20.594Z,13.28
2024-02-10T21:22:23.033Z,13.23
2024-02-10T21:27:28.529Z,13.22
2024-02-10T21:32:31.487Z,13.20
2024-02-10T21:37:34.555Z,13.15
2024-02-10T21:42:41.412Z,13.13
2024-02-10T21:47:48.390Z,13.07
2024-02-10T21:52:50.805Z,13.03
2024-02-10T21:57:54.857Z,12.98
2024-02-10T22:02:57.811Z,12.95
2024-02-10T22:08:00.215Z,12.89
2024-02-10T22:13:02.507Z,12.84
2024-02-10T22:18:04.818Z,12.75
2024-02-10T22:23:09.037Z,12.75
2024-02-10T22:28:14.087Z,12.68
2024-02-10T22:33:20.058Z,12.63
2024-02-10T22:38:24.267Z,12.56
2024-02-10T22:43:28.624Z,12.51
2024-02-10T22:48:34.338Z,12.44
2024-02-10T22:53:40.419Z,12.36
2024-02-10T22:58:42.955Z,12.29
2024-02-10T23:03:47.150Z,12.23
2024-02-10T23:08:50.056Z,12.16
2024-02-10T23:13:52.321Z,12.10
2024-02-10T23:18:55.230Z,12.05
2024-02-10T23:24:02.457Z,12.02
2024-02-10T23:29:05.347Z,11.98
2024-02-10T23:34:13.703Z,11.94
2024-02-10T23:39:22.544Z,11.93
2024-02-10T23:44:25.168Z,11.90
2024-02-10T23:49:28.444Z,11.87
2024-02-10T23:54:35.155Z,11.85
2024-02-10T23:59:40.100Z,11.82
